createdAt,value
2018-08-07T00:00:32.471Z,95048.08
2018-08-07T00:03:01.257Z,95050.70
2018-08-07T00:05:30.043Z,95053.09
2018-08-07T00:07:59.189Z,95048.05
2018-08-07T00:10:28.012Z,95049.88
2018-08-07T00:12:56.834Z,95048.55
2018-08-07T00:15:27.425Z,95050.92
2018-08-07T00:17:56.220Z,95057.86
2018-08-07T00:20:25.103Z,95057.03
2018-08-07T00:22:53.957Z,95058.08
2018-08-07T00:25:23.093Z,95056.73
2018-08-07T00:27:51.937Z,95052.73
2018-08-07T00:30:21.009Z,95049.26
2018-08-07T00:32:50.194Z,95056.75
2018-08-07T00:35:20.171Z,95052.73
2018-08-07T00:37:49.511Z,95053.77
2018-08-07T00:40:19.269Z,95051.38
2018-08-07T00:42:48.686Z,95051.60
2018-08-07T00:45:20.871Z,95051.05
2018-08-07T00:47:50.251Z,95052.33
2018-08-07T00:50:20.685Z,95052.61
2018-08-07T00:52:50.390Z,95048.34
2018-08-07T00:55:19.864Z,95049.36
2018-08-07T00:57:49.303Z,95054.13
2018-08-07T01:00:18.707Z,95047.17
2018-08-07T01:02:47.848Z,95048.45
2018-08-07T01:05:17.606Z,95046.03
2018-08-07T01:07:46.793Z,95040.18
2018-08-07T01:10:17.979Z,95041.45
2018-08-07T01:12:47.195Z,95043.03
2018-08-07T01:15:18.263Z,95042.75
2018-08-07T01:17:47.482Z,95037.92
2018-08-07T01:20:18.835Z,95041.08
2018-08-07T01:22:47.557Z,95033.34
2018-08-07T01:25:23.523Z,95036.50
2018-08-07T01:27:52.352Z,95033.56
2018-08-07T01:30:27.131Z,95032.48
2018-08-07T01:32:56.381Z,95030.87
2018-08-07T01:35:25.924Z,95036.16
2018-08-07T01:37:54.725Z,95037.45
2018-08-07T01:40:23.520Z,95029.75
2018-08-07T01:42:52.239Z,95031.09
2018-08-07T01:45:21.373Z,95026.81
2018-08-07T01:47:50.230Z,95033.99
2018-08-07T01:50:19.036Z,95028.36
2018-08-07T01:52:47.795Z,95033.37
2018-08-07T01:55:21.712Z,95028.29
2018-08-07T01:57:50.613Z,95032.31
2018-08-07T02:00:19.650Z,95034.70
2018-08-07T02:02:48.955Z,95034.20
2018-08-07T02:05:18.186Z,95032.03
2018-08-07T02:07:47.052Z,95032.00
2018-08-07T02:10:17.498Z,95028.75
2018-08-07T02:12:46.255Z,95037.26
2018-08-07T02:15:15.733Z,95036.73
2018-08-07T02:17:44.502Z,95035.09
2018-08-07T02:20:15.645Z,95035.61
2018-08-07T02:22:45.006Z,95035.56
2018-08-07T02:25:15.304Z,95035.50
2018-08-07T02:27:45.020Z,95039.52
2018-08-07T02:30:14.614Z,95042.43
2018-08-07T02:32:43.432Z,95044.25
2018-08-07T02:35:14.289Z,95042.39
2018-08-07T02:37:44.280Z,95041.34
2018-08-07T02:40:13.896Z,95045.33
2018-08-07T02:42:43.069Z,95051.46
2018-08-07T02:45:13.944Z,95055.13
2018-08-07T02:47:43.631Z,95062.06
2018-08-07T02:50:14.222Z,95059.40
2018-08-07T02:52:43.119Z,95058.59
2018-08-07T02:55:12.248Z,95060.89
2018-08-07T02:57:42.166Z,95062.74
2018-08-07T03:00:13.245Z,95062.11
2018-08-07T03:02:42.059Z,95052.68
2018-08-07T03:05:11.174Z,95056.14
2018-08-07T03:07:40.694Z,95060.13
2018-08-07T03:10:10.513Z,95062.02
2018-08-07T03:12:39.597Z,95067.30
2018-08-07T03:15:12.116Z,95067.02
2018-08-07T03:17:41.178Z,95071.77
2018-08-07T03:20:10.278Z,95064.11
2018-08-07T03:22:39.176Z,95069.35
2018-08-07T03:25:10.110Z,95065.31
2018-08-07T03:27:38.917Z,95068.73
2018-08-07T03:30:10.450Z,95069.50
2018-08-07T03:32:39.370Z,95069.06
2018-08-07T03:35:08.542Z,95078.32
2018-08-07T03:37:38.355Z,95078.09
2018-08-07T03:40:11.029Z,95077.05
2018-08-07T03:42:39.958Z,95078.04
2018-08-07T03:45:10.468Z,95079.66
2018-08-07T03:47:39.342Z,95082.59
2018-08-07T03:50:08.961Z,95078.89
2018-08-07T03:52:38.050Z,95079.46
2018-08-07T03:55:09.511Z,95083.48
2018-08-07T03:57:38.693Z,95083.58
2018-08-07T04:00:12.321Z,95077.79
2018-08-07T04:02:41.298Z,95079.23
2018-08-07T04:05:10.095Z,95076.53
2018-08-07T04:07:39.221Z,95076.56
2018-08-07T04:10:10.541Z,95081.56
2018-08-07T04:12:39.665Z,95078.98
2018-08-07T04:15:10.475Z,95083.63
2018-08-07T04:17:39.359Z,95086.36
2018-08-07T04:20:10.425Z,95088.54
2018-08-07T04:22:39.201Z,95094.42
2018-08-07T04:25:08.049Z,95096.31
2018-08-07T04:27:37.479Z,95095.06
2018-08-07T04:30:09.689Z,95093.53
2018-08-07T04:32:39.345Z,95093.00
2018-08-07T04:35:08.099Z,95093.28
2018-08-07T04:37:37.020Z,95096.75
2018-08-07T04:40:07.258Z,95093.53
2018-08-07T04:42:37.285Z,95105.69
2018-08-07T04:45:08.337Z,95101.12
2018-08-07T04:47:37.218Z,95101.95
2018-08-07T04:50:06.522Z,95105.48
2018-08-07T04:52:35.513Z,95104.20
2018-08-07T04:55:04.514Z,95100.49
2018-08-07T04:57:33.361Z,95099.41
2018-08-07T05:00:02.115Z,95104.88
2018-08-07T05:02:30.982Z,95104.84
2018-08-07T05:04:59.701Z,95102.16
2018-08-07T05:07:28.492Z,95105.22
2018-08-07T05:09:57.276Z,95111.76
2018-08-07T05:12:26.130Z,95110.39
2018-08-07T05:14:54.941Z,95109.11
2018-08-07T05:17:23.769Z,95107.05
2018-08-07T05:19:52.607Z,95119.52
2018-08-07T05:22:21.353Z,95118.81
2018-08-07T05:24:50.183Z,95116.95
2018-08-07T05:27:18.987Z,95116.95
2018-08-07T05:29:48.421Z,95123.31
2018-08-07T05:32:17.757Z,95125.78
2018-08-07T05:34:47.314Z,95124.86
2018-08-07T05:37:16.469Z,95124.64
2018-08-07T05:39:45.287Z,95125.47
2018-08-07T05:42:14.453Z,95121.46
2018-08-07T05:44:43.381Z,95118.97
2018-08-07T05:47:12.223Z,95124.75
2018-08-07T05:49:41.438Z,95126.41
2018-08-07T05:52:10.374Z,95124.39
2018-08-07T05:54:39.129Z,95131.69
2018-08-07T05:57:08.622Z,95131.96
2018-08-07T05:59:37.729Z,95135.77
2018-08-07T06:02:06.573Z,95136.52
2018-08-07T06:04:35.377Z,95136.88
2018-08-07T06:07:04.290Z,95138.75
2018-08-07T06:09:33.080Z,95137.19
2018-08-07T06:12:01.952Z,95133.93
2018-08-07T06:14:30.698Z,95128.26
2018-08-07T06:16:59.961Z,95133.39
2018-08-07T06:19:29.066Z,95138.56
2018-08-07T06:21:58.227Z,95138.83
2018-08-07T06:24:26.997Z,95146.29
2018-08-07T06:26:55.842Z,95138.26
2018-08-07T06:29:24.600Z,95140.94
2018-08-07T06:31:53.397Z,95132.37
2018-08-07T06:34:22.510Z,95136.15
2018-08-07T06:36:51.242Z,95134.04
2018-08-07T06:39:20.117Z,95136.15
2018-08-07T06:41:49.610Z,95134.55
2018-08-07T06:44:18.407Z,95134.55
2018-08-07T06:46:47.500Z,95129.19
2018-08-07T06:49:16.706Z,95132.86
2018-08-07T06:51:45.522Z,95133.41
2018-08-07T06:54:14.241Z,95129.11
2018-08-07T06:56:43.069Z,95133.09
2018-08-07T06:59:11.945Z,95129.91
2018-08-07T07:01:40.778Z,95128.58
2018-08-07T07:04:09.623Z,95128.31
2018-08-07T07:06:38.402Z,95127.20
2018-08-07T07:09:10.801Z,95131.70
2018-08-07T07:11:39.666Z,95131.17
2018-08-07T07:14:08.782Z,95130.61
2018-08-07T07:16:37.755Z,95129.80
2018-08-07T07:19:06.541Z,95132.48
2018-08-07T07:21:35.343Z,95130.24
2018-08-07T07:24:04.271Z,95125.69
2018-08-07T07:26:33.067Z,95131.58
2018-08-07T07:29:02.012Z,95129.43
2018-08-07T07:31:30.746Z,95133.66
2018-08-07T07:33:59.889Z,95135.06
2018-08-07T07:36:28.723Z,95135.02
2018-08-07T07:38:57.545Z,95134.95
2018-08-07T07:41:26.385Z,95131.13
2018-08-07T07:43:55.494Z,95132.13
2018-08-07T07:46:24.334Z,95131.31
2018-08-07T07:48:53.133Z,95131.50
2018-08-07T07:51:21.911Z,95120.44
2018-08-07T07:53:50.729Z,95127.57
2018-08-07T07:56:19.530Z,95124.84
2018-08-07T07:58:48.696Z,95124.25
2018-08-07T08:01:17.626Z,95120.48
2018-08-07T08:03:46.478Z,95120.20
2018-08-07T08:06:15.646Z,95121.75
2018-08-07T08:08:44.677Z,95123.60
2018-08-07T08:11:13.899Z,95114.40
2018-08-07T08:13:43.281Z,95119.09
2018-08-07T08:16:12.790Z,95110.71
2018-08-07T08:18:41.986Z,95106.41
2018-08-07T08:21:10.735Z,95108.99
2018-08-07T08:23:39.527Z,95106.47
2018-08-07T08:26:08.412Z,95110.58
2018-08-07T08:28:37.179Z,95113.50
2018-08-07T08:31:06.022Z,95113.79
2018-08-07T08:33:35.184Z,95104.54
2018-08-07T08:36:03.945Z,95102.63
2018-08-07T08:38:33.163Z,95109.66
2018-08-07T08:41:02.060Z,95111.12
2018-08-07T08:43:31.358Z,95111.33
2018-08-07T08:46:00.191Z,95109.73
2018-08-07T08:48:29.015Z,95111.02
2018-08-07T08:50:57.820Z,95110.20
2018-08-07T08:53:26.656Z,95108.28
2018-08-07T08:55:55.500Z,95102.27
2018-08-07T08:58:24.367Z,95105.42
2018-08-07T09:00:53.152Z,95105.76
2018-08-07T09:03:22.743Z,95106.95
2018-08-07T09:05:51.541Z,95104.45
2018-08-07T09:08:20.338Z,95108.17
2018-08-07T09:10:49.176Z,95109.48
2018-08-07T09:13:18.134Z,95101.19
2018-08-07T09:15:46.926Z,95101.28
2018-08-07T09:18:15.725Z,95102.89
2018-08-07T09:20:44.518Z,95099.04
2018-08-07T09:23:13.877Z,95092.98
2018-08-07T09:25:42.754Z,95093.90
2018-08-07T09:28:11.783Z,95100.49
2018-08-07T09:30:40.616Z,95098.13
2018-08-07T09:33:09.362Z,95090.59
2018-08-07T09:35:38.152Z,95088.41
2018-08-07T09:38:07.333Z,95086.12
2018-08-07T09:40:36.535Z,95084.27
2018-08-07T09:43:05.501Z,95086.41
2018-08-07T09:45:35.605Z,95087.47
2018-08-07T09:48:08.179Z,95080.91
2018-08-07T09:50:37.478Z,95070.28
2018-08-07T09:53:06.550Z,95076.93
2018-08-07T09:55:35.465Z,95072.61
2018-08-07T09:58:04.386Z,95070.64
2018-08-07T10:00:39.918Z,95073.31
2018-08-07T10:03:10.914Z,95069.77
2018-08-07T10:05:39.957Z,95065.88
2018-08-07T10:08:08.868Z,95066.46
2018-08-07T10:10:37.736Z,95061.58
2018-08-07T10:13:06.687Z,95054.93
2018-08-07T10:15:35.840Z,95053.33
2018-08-07T10:18:05.134Z,95050.26
2018-08-07T10:20:34.303Z,95050.68
2018-08-07T10:23:03.120Z,95048.03
2018-08-07T10:25:33.069Z,95049.66
2018-08-07T10:28:01.794Z,95041.03
2018-08-07T10:30:31.000Z,95041.89
2018-08-07T10:32:59.997Z,95038.47
2018-08-07T10:35:29.257Z,95033.30
2018-08-07T10:37:58.370Z,95028.95
2018-08-07T10:40:28.148Z,95030.02
2018-08-07T10:42:56.927Z,95020.08
2018-08-07T10:45:26.767Z,95016.33
2018-08-07T10:47:55.982Z,95008.92
2018-08-07T10:50:26.600Z,95010.27
2018-08-07T10:52:55.822Z,95013.89
2018-08-07T10:55:25.407Z,95005.86
2018-08-07T10:57:55.754Z,95000.66
2018-08-07T11:00:27.790Z,94997.77
2018-08-07T11:02:58.304Z,94988.58
2018-08-07T11:05:28.022Z,94995.45
2018-08-07T11:07:56.869Z,94990.91
2018-08-07T11:10:26.896Z,94988.70
2018-08-07T11:12:56.021Z,94990.50
2018-08-07T11:15:29.349Z,94992.05
2018-08-07T11:17:59.036Z,94987.05
2018-08-07T11:20:28.205Z,94986.74
2018-08-07T11:22:59.312Z,94988.23
2018-08-07T11:25:28.963Z,94989.77
2018-08-07T11:27:58.904Z,94989.53
2018-08-07T11:30:28.846Z,94979.34
2018-08-07T11:32:59.066Z,94974.59
2018-08-07T11:35:28.359Z,94974.43
2018-08-07T11:37:58.397Z,94972.38
2018-08-07T11:40:27.478Z,94981.67
2018-08-07T11:42:57.176Z,94979.83
2018-08-07T11:45:27.847Z,94970.63
2018-08-07T11:47:56.874Z,94966.18
2018-08-07T11:50:27.069Z,94967.99
2018-08-07T11:52:55.964Z,94973.00
2018-08-07T11:55:25.437Z,94959.64
2018-08-07T11:57:55.077Z,94965.38
2018-08-07T12:00:26.090Z,94957.40
2018-08-07T12:02:54.995Z,94954.41
2018-08-07T12:05:24.129Z,94952.27
2018-08-07T12:07:53.051Z,94955.03
2018-08-07T12:10:22.244Z,94950.55
2018-08-07T12:12:51.487Z,94945.05
2018-08-07T12:15:24.523Z,94938.80
2018-08-07T12:17:55.370Z,94947.31
2018-08-07T12:20:24.187Z,94939.37
2018-08-07T12:22:53.093Z,94942.70
2018-08-07T12:25:22.264Z,94930.22
2018-08-07T12:27:51.251Z,94933.86
2018-08-07T12:30:23.160Z,94935.88
2018-08-07T12:32:52.129Z,94938.28
2018-08-07T12:35:21.021Z,94946.33
2018-08-07T12:37:50.034Z,94946.91
2018-08-07T12:40:23.844Z,94946.75
2018-08-07T12:42:54.270Z,94952.46
2018-08-07T12:45:23.037Z,94955.26
2018-08-07T12:47:52.262Z,94955.32
2018-08-07T12:50:21.035Z,94957.38
2018-08-07T12:52:50.203Z,94956.81
2018-08-07T12:55:20.734Z,94953.92
2018-08-07T12:57:50.154Z,94953.38
2018-08-07T13:00:20.743Z,94958.60
2018-08-07T13:02:49.779Z,94952.97
2018-08-07T13:05:18.627Z,94954.87
2018-08-07T13:07:47.539Z,94959.49
2018-08-07T13:10:17.735Z,94958.17
2018-08-07T13:12:47.144Z,94969.11
2018-08-07T13:15:17.682Z,94975.02
2018-08-07T13:17:46.891Z,94974.66
2018-08-07T13:20:16.134Z,94972.16
2018-08-07T13:22:45.645Z,94970.54
2018-08-07T13:25:18.853Z,94966.14
2018-08-07T13:27:47.619Z,94962.24
2018-08-07T13:30:20.184Z,94957.85
2018-08-07T13:32:49.115Z,94966.25
2018-08-07T13:35:18.421Z,94974.78
2018-08-07T13:37:48.754Z,94968.06
2018-08-07T13:40:18.915Z,94955.91
2018-08-07T13:42:47.812Z,94964.97
2018-08-07T13:45:18.697Z,94955.64
2018-08-07T13:47:47.717Z,94951.12
2018-08-07T13:50:18.018Z,94959.36
2018-08-07T13:52:47.350Z,94958.62
2018-08-07T13:55:17.453Z,94968.18
2018-08-07T13:57:46.762Z,94967.48
2018-08-07T14:00:22.751Z,94960.50
2018-08-07T14:02:52.208Z,94959.64
2018-08-07T14:05:21.634Z,94966.39
2018-08-07T14:07:51.617Z,94962.75
2018-08-07T14:10:21.476Z,94958.41
2018-08-07T14:12:51.584Z,94973.12
2018-08-07T14:15:21.285Z,94974.20
2018-08-07T14:17:50.793Z,94981.27
2018-08-07T14:20:20.164Z,94974.91
2018-08-07T14:22:49.391Z,94979.30
2018-08-07T14:25:20.784Z,94978.08
2018-08-07T14:27:50.048Z,94981.16
2018-08-07T14:30:21.269Z,94975.98
2018-08-07T14:32:50.409Z,94976.74
2018-08-07T14:35:19.377Z,94970.22
2018-08-07T14:37:48.911Z,94977.25
2018-08-07T14:40:18.969Z,94973.50
2018-08-07T14:42:48.934Z,94966.27
2018-08-07T14:45:20.837Z,94961.63
2018-08-07T14:47:50.560Z,94959.28
2018-08-07T14:50:20.938Z,94965.55
2018-08-07T14:52:49.657Z,94963.72
2018-08-07T14:55:18.695Z,94960.70
2018-08-07T14:57:47.554Z,94968.16
2018-08-07T15:00:22.475Z,94971.20
2018-08-07T15:02:51.470Z,94964.29
2018-08-07T15:05:20.197Z,94962.87
2018-08-07T15:07:48.979Z,94959.20
2018-08-07T15:10:21.293Z,94962.30
2018-08-07T15:12:50.095Z,94963.99
2018-08-07T15:15:21.487Z,94964.75
2018-08-07T15:17:50.372Z,94970.00
2018-08-07T15:20:20.795Z,94967.48
2018-08-07T15:22:51.053Z,94974.22
2018-08-07T15:25:20.612Z,94976.51
2018-08-07T15:27:49.455Z,94985.83
2018-08-07T15:30:21.567Z,94976.95
2018-08-07T15:32:51.038Z,94978.45
2018-08-07T15:35:21.229Z,94972.47
2018-08-07T15:37:50.696Z,94977.89
2018-08-07T15:40:19.949Z,94969.02
2018-08-07T15:42:49.531Z,94966.67
2018-08-07T15:45:20.413Z,94963.73
2018-08-07T15:47:49.910Z,94963.64
2018-08-07T15:50:19.577Z,94964.05
2018-08-07T15:52:50.068Z,94965.79
2018-08-07T15:55:21.290Z,94965.20
2018-08-07T15:57:50.157Z,94967.34
2018-08-07T16:00:26.061Z,94969.23
2018-08-07T16:02:54.997Z,94966.47
2018-08-07T16:05:23.848Z,94971.52
2018-08-07T16:07:53.699Z,94972.50
2018-08-07T16:10:23.018Z,94974.86
2018-08-07T16:12:52.860Z,94971.50
2018-08-07T16:15:21.799Z,94985.37
2018-08-07T16:17:51.548Z,94977.55
2018-08-07T16:20:21.258Z,94980.24
2018-08-07T16:22:50.537Z,94974.47
2018-08-07T16:25:20.396Z,94981.83
2018-08-07T16:27:50.036Z,94981.36
2018-08-07T16:30:27.116Z,94976.77
2018-08-07T16:32:56.155Z,94976.30
2018-08-07T16:35:24.937Z,94968.38
2018-08-07T16:37:54.365Z,94972.87
2018-08-07T16:40:24.363Z,94974.04
2018-08-07T16:42:54.618Z,94978.55
2018-08-07T16:45:24.363Z,94980.59
2018-08-07T16:47:53.217Z,94983.31
2018-08-07T16:50:24.953Z,94988.41
2018-08-07T16:52:54.763Z,94989.14
2018-08-07T16:55:25.492Z,94993.39
2018-08-07T16:57:54.607Z,94999.46
2018-08-07T17:00:23.831Z,95007.38
2018-08-07T17:02:52.736Z,95004.17
2018-08-07T17:05:22.073Z,95003.89
2018-08-07T17:07:51.493Z,95002.33
2018-08-07T17:10:22.945Z,95004.25
2018-08-07T17:12:51.911Z,95005.69
2018-08-07T17:15:20.882Z,94997.44
2018-08-07T17:17:49.992Z,95001.86
2018-08-07T17:20:20.302Z,95005.18
2018-08-07T17:22:49.849Z,95003.42
2018-08-07T17:25:19.966Z,95007.45
2018-08-07T17:27:49.402Z,95012.34
2018-08-07T17:30:20.246Z,95016.13
2018-08-07T17:32:49.146Z,95009.72
2018-08-07T17:35:20.297Z,95006.03
2018-08-07T17:37:50.454Z,95015.44
2018-08-07T17:40:20.862Z,95009.07
2018-08-07T17:42:49.792Z,95012.50
2018-08-07T17:45:19.186Z,95022.42
2018-08-07T17:47:48.101Z,95020.62
2018-08-07T17:50:19.261Z,95020.68
2018-08-07T17:52:48.278Z,95029.34
2018-08-07T17:55:17.257Z,95025.08
2018-08-07T17:57:46.543Z,95026.80
2018-08-07T18:00:17.516Z,95027.91
2018-08-07T18:02:46.795Z,95026.33
2018-08-07T18:05:15.756Z,95026.95
2018-08-07T18:07:46.287Z,95028.33
2018-08-07T18:10:17.500Z,95032.41
2018-08-07T18:12:46.570Z,95038.61
2018-08-07T18:15:16.584Z,95039.17
2018-08-07T18:17:45.898Z,95051.38
2018-08-07T18:20:17.855Z,95042.55
2018-08-07T18:22:46.679Z,95047.69
2018-08-07T18:25:15.902Z,95040.99
2018-08-07T18:27:44.743Z,95047.82
2018-08-07T18:30:15.319Z,95048.97
2018-08-07T18:32:44.809Z,95053.84
2018-08-07T18:35:16.328Z,95057.38
2018-08-07T18:37:45.466Z,95063.02
2018-08-07T18:40:14.329Z,95058.76
2018-08-07T18:42:43.195Z,95062.87
2018-08-07T18:45:13.744Z,95063.48
2018-08-07T18:47:43.142Z,95070.55
2018-08-07T18:50:22.613Z,95071.38
2018-08-07T18:52:51.487Z,95073.84
2018-08-07T18:55:20.382Z,95069.07
2018-08-07T18:57:50.458Z,95073.59
2018-08-07T19:00:20.868Z,95074.20
2018-08-07T19:02:50.081Z,95078.83
2018-08-07T19:05:20.509Z,95080.23
2018-08-07T19:07:49.434Z,95075.75
2018-08-07T19:10:18.226Z,95084.08
2018-08-07T19:12:47.892Z,95083.33
2018-08-07T19:15:17.672Z,95079.89
2018-08-07T19:17:46.547Z,95085.27
2018-08-07T19:20:18.783Z,95085.55
2018-08-07T19:22:48.359Z,95084.25
2018-08-07T19:25:17.681Z,95077.53
2018-08-07T19:27:46.578Z,95073.52
2018-08-07T19:30:17.344Z,95065.78
2018-08-07T19:32:46.225Z,95064.98
2018-08-07T19:35:15.230Z,95064.23
2018-08-07T19:37:44.277Z,95067.23
2018-08-07T19:40:15.396Z,95062.95
2018-08-07T19:42:44.911Z,95062.45
2018-08-07T19:45:13.977Z,95068.31
2018-08-07T19:47:43.289Z,95065.14
2018-08-07T19:50:13.849Z,95061.66
2018-08-07T19:53:16.491Z,95063.27
2018-08-07T19:55:45.610Z,95067.28
2018-08-07T19:58:14.497Z,95064.88
2018-08-07T20:00:43.429Z,95062.46
2018-08-07T20:03:12.231Z,95065.14
2018-08-07T20:05:41.249Z,95071.83
2018-08-07T20:08:10.093Z,95075.05
2018-08-07T20:10:39.127Z,95072.41
2018-08-07T20:13:08.090Z,95076.73
2018-08-07T20:15:36.901Z,95077.81
2018-08-07T20:18:06.022Z,95081.83
2018-08-07T20:20:34.833Z,95084.00
2018-08-07T20:23:03.605Z,95081.06
2018-08-07T20:25:32.413Z,95080.30
2018-08-07T20:28:01.222Z,95085.91
2018-08-07T20:30:30.360Z,95085.87
2018-08-07T20:32:59.452Z,95089.09
2018-08-07T20:35:28.281Z,95086.98
2018-08-07T20:37:57.475Z,95089.69
2018-08-07T20:40:27.683Z,95091.29
2018-08-07T20:42:57.872Z,95096.11
2018-08-07T20:45:26.795Z,95091.02
2018-08-07T20:47:55.605Z,95093.45
2018-08-07T20:50:25.779Z,95094.25
2018-08-07T20:52:55.663Z,95090.24
2018-08-07T20:55:24.594Z,95093.98
2018-08-07T20:57:53.442Z,95102.28
2018-08-07T21:00:24.565Z,95102.54
2018-08-07T21:02:53.359Z,95109.25
2018-08-07T21:05:22.545Z,95110.59
2018-08-07T21:07:51.589Z,95110.33
2018-08-07T21:10:25.252Z,95110.84
2018-08-07T21:12:54.237Z,95107.12
2018-08-07T21:15:23.101Z,95112.46
2018-08-07T21:17:52.279Z,95115.95
2018-08-07T21:20:22.086Z,95112.48
2018-08-07T21:22:51.388Z,95111.94
2018-08-07T21:25:22.602Z,95105.27
2018-08-07T21:27:56.349Z,95112.19
2018-08-07T21:30:26.961Z,95122.64
2018-08-07T21:32:55.823Z,95120.77
2018-08-07T21:35:24.633Z,95121.83
2018-08-07T21:37:53.556Z,95127.71
2018-08-07T21:40:24.073Z,95121.03
2018-08-07T21:42:54.103Z,95116.75
2018-08-07T21:45:23.672Z,95121.04
2018-08-07T21:47:52.563Z,95117.02
2018-08-07T21:50:23.291Z,95122.12
2018-08-07T21:52:52.039Z,95116.23
2018-08-07T21:55:21.560Z,95110.08
2018-08-07T21:57:50.639Z,95118.90
2018-08-07T22:00:37.928Z,95113.03
2018-08-07T22:03:07.006Z,95124.27
2018-08-07T22:05:35.954Z,95125.33
2018-08-07T22:08:05.010Z,95121.31
2018-08-07T22:10:33.853Z,95112.19
2018-08-07T22:13:02.878Z,95121.27
2018-08-07T22:15:31.777Z,95123.43
2018-08-07T22:18:00.969Z,95119.41
2018-08-07T22:20:30.137Z,95110.56
2018-08-07T22:22:59.061Z,95111.38
2018-08-07T22:25:28.361Z,95111.38
2018-08-07T22:27:57.193Z,95112.97
2018-08-07T22:30:26.473Z,95107.89
2018-08-07T22:32:55.367Z,95111.36
2018-08-07T22:35:24.551Z,95118.56
2018-08-07T22:37:53.391Z,95119.12
2018-08-07T22:40:22.213Z,95118.31
2018-08-07T22:42:51.034Z,95116.41
2018-08-07T22:45:19.939Z,95112.67
2018-08-07T22:47:48.715Z,95112.12
2018-08-07T22:50:18.711Z,95116.92
2018-08-07T22:52:47.899Z,95114.24
2018-08-07T22:55:18.097Z,95117.45
2018-08-07T22:57:47.331Z,95115.33
2018-08-07T23:00:18.168Z,95117.72
2018-08-07T23:02:47.108Z,95111.30
2018-08-07T23:05:17.061Z,95115.06
2018-08-07T23:07:45.906Z,95115.61
2018-08-07T23:10:21.201Z,95114.80
2018-08-07T23:12:50.197Z,95122.00
2018-08-07T23:15:20.569Z,95117.19
2018-08-07T23:17:50.230Z,95118.28
2018-08-07T23:20:20.785Z,95107.84
2018-08-07T23:22:50.019Z,95114.79
2018-08-07T23:25:18.785Z,95113.12
2018-08-07T23:27:47.607Z,95110.69
2018-08-07T23:30:23.236Z,95108.55
2018-08-07T23:32:52.010Z,95110.92
2018-08-07T23:35:20.844Z,95114.93
2018-08-07T23:37:49.645Z,95118.94
2018-08-07T23:40:18.814Z,95114.95
2018-08-07T23:42:47.629Z,95117.85
2018-08-07T23:45:16.726Z,95116.23
2018-08-07T23:47:46.088Z,95119.98
2018-08-07T23:50:15.240Z,95120.52
2018-08-07T23:52:44.108Z,95121.81
2018-08-07T23:55:12.941Z,95122.34
2018-08-07T23:57:41.700Z,95118.06
